createdAt,value
2023-05-14T00:05:22.861Z,96.1689
2023-05-14T00:06:23.772Z,96.2817
2023-05-14T00:07:24.662Z,96.3449
2023-05-14T00:08:25.549Z,96.3623
2023-05-14T00:09:26.401Z,96.0617
2023-05-14T00:10:27.265Z,95.9909
2023-05-14T00:11:28.127Z,96.1543
2023-05-14T00:12:29.037Z,96.5180
2023-05-14T00:13:29.927Z,96.6517
2023-05-14T00:14:30.764Z,96.4667
2023-05-14T00:15:33.622Z,96.2411
2023-05-14T00:16:32.436Z,96.0675
2023-05-14T00:17:34.390Z,96.1719
2023-05-14T00:18:36.221Z,96.1918
2023-05-14T00:19:41.105Z,96.1650
2023-05-14T00:21:41.372Z,96.3127
2023-05-14T00:22:43.924Z,96.3558
2023-05-14T00:23:44.799Z,96.3717
2023-05-14T00:24:46.294Z,96.3491
2023-05-14T00:25:47.973Z,96.1023
2023-05-14T00:26:48.871Z,95.9805
2023-05-14T00:27:50.371Z,96.0712
2023-05-14T00:28:51.905Z,96.1334
2023-05-14T00:29:53.236Z,96.2124
2023-05-14T00:30:54.750Z,96.1699
2023-05-14T00:31:55.664Z,96.3972
2023-05-14T00:32:56.581Z,96.5774
2023-05-14T00:33:58.075Z,96.6067
2023-05-14T00:34:59.562Z,96.6510
2023-05-14T00:36:00.441Z,96.6772
2023-05-14T00:37:01.364Z,96.7406
2023-05-14T00:38:02.602Z,96.8330
2023-05-14T00:39:03.484Z,96.8418
2023-05-14T00:40:04.625Z,96.7927
2023-05-14T00:41:05.555Z,96.5802
2023-05-14T00:42:06.488Z,96.5017
2023-05-14T00:43:07.346Z,96.4828
2023-05-14T00:44:08.244Z,96.4666
2023-05-14T00:45:09.087Z,96.5013
2023-05-14T00:46:10.225Z,96.5585
2023-05-14T00:47:11.109Z,96.6004
2023-05-14T00:48:11.962Z,96.4651
2023-05-14T00:49:12.827Z,96.3766
2023-05-14T00:50:13.709Z,96.4322
2023-05-14T00:51:14.581Z,96.4759
2023-05-14T00:52:16.066Z,96.4282
2023-05-14T00:53:17.572Z,96.4328
2023-05-14T00:54:18.455Z,96.5990
2023-05-14T00:55:20.803Z,96.6870
2023-05-14T00:56:22.417Z,96.6632
2023-05-14T00:57:23.306Z,96.6970
2023-05-14T00:58:24.168Z,96.7079
2023-05-14T01:00:26.144Z,96.4629
2023-05-14T01:01:27.133Z,96.3926
2023-05-14T01:02:28.090Z,96.2009
2023-05-14T01:03:30.080Z,96.2027
2023-05-14T01:04:31.035Z,96.2312
2023-05-14T01:05:31.924Z,96.2347
2023-05-14T01:06:33.754Z,96.1028
2023-05-14T01:07:34.650Z,96.1214
2023-05-14T01:08:36.162Z,96.0281
2023-05-14T01:09:37.053Z,95.9921
2023-05-14T01:10:37.967Z,95.9130
2023-05-14T01:11:39.429Z,95.8913
2023-05-14T01:12:40.331Z,95.9809
2023-05-14T01:13:41.245Z,96.0761
2023-05-14T01:14:42.181Z,96.2269
2023-05-14T01:15:43.387Z,96.4135
2023-05-14T01:16:44.292Z,96.4570
2023-05-14T01:17:46.021Z,96.3715
2023-05-14T01:18:47.678Z,96.4145
2023-05-14T01:19:48.597Z,96.2059
2023-05-14T01:20:50.137Z,95.9771
2023-05-14T01:21:51.108Z,95.8114
2023-05-14T01:22:51.992Z,95.7805
2023-05-14T01:23:52.930Z,95.6158
2023-05-14T01:24:54.904Z,95.4616
2023-05-14T01:25:55.844Z,95.4931
2023-05-14T01:26:57.316Z,95.5723
2023-05-14T01:27:58.841Z,95.6294
2023-05-14T01:29:00.499Z,95.6646
2023-05-14T01:30:01.396Z,95.8126
2023-05-14T01:31:03.160Z,95.9785
2023-05-14T01:32:04.896Z,95.9997
2023-05-14T01:33:06.006Z,96.0439
2023-05-14T01:34:07.831Z,95.7443
2023-05-14T01:35:09.395Z,95.6361
2023-05-14T01:36:10.293Z,95.5386
2023-05-14T01:37:11.217Z,95.4932
2023-05-14T01:38:12.152Z,95.5954
2023-05-14T01:39:13.100Z,95.5954
2023-05-14T01:41:14.809Z,95.8098
2023-05-14T01:42:15.759Z,96.0014
2023-05-14T01:43:16.720Z,96.1087
2023-05-14T01:44:17.675Z,96.2609
2023-05-14T01:45:18.609Z,96.3772
2023-05-14T01:46:19.785Z,96.0303
2023-05-14T01:47:20.762Z,95.8814
2023-05-14T01:48:21.744Z,95.9621
2023-05-14T01:49:22.706Z,96.0616
2023-05-14T01:50:23.740Z,96.2806
2023-05-14T01:51:24.725Z,96.2630
2023-05-14T01:52:25.630Z,96.2567
2023-05-14T01:53:26.549Z,96.1825
2023-05-14T01:54:27.457Z,96.3192
2023-05-14T01:55:28.553Z,96.4160
2023-05-14T01:56:29.536Z,96.4314
2023-05-14T01:57:30.428Z,96.3112
2023-05-14T01:59:32.096Z,96.2329
2023-05-14T02:00:33.027Z,96.5137
2023-05-14T02:01:34.449Z,96.6303
2023-05-14T02:02:35.452Z,96.7037
2023-05-14T02:03:36.416Z,96.7492
2023-05-14T02:04:37.354Z,96.5098
2023-05-14T02:05:38.278Z,96.5487
2023-05-14T02:06:39.204Z,96.6812
2023-05-14T02:07:40.121Z,96.7048
2023-05-14T02:08:41.109Z,96.9988
2023-05-14T02:09:42.012Z,97.2299
2023-05-14T02:10:42.972Z,97.2136
2023-05-14T02:11:43.923Z,97.0329
2023-05-14T02:12:45.009Z,96.9093
2023-05-14T02:13:45.906Z,96.7150
2023-05-14T02:14:46.861Z,96.8150
2023-05-14T02:15:47.819Z,96.9491
2023-05-14T02:16:48.743Z,96.9742
2023-05-14T02:17:49.697Z,96.9382
2023-05-14T02:18:50.704Z,97.0368
2023-05-14T02:19:51.672Z,97.0013
2023-05-14T02:20:52.615Z,97.0332
2023-05-14T02:21:53.537Z,97.0556
2023-05-14T02:22:54.497Z,96.8729
2023-05-14T02:23:55.432Z,96.8459
2023-05-14T02:24:56.362Z,96.8022
2023-05-14T02:25:57.486Z,96.8439
2023-05-14T02:27:00.196Z,96.9135
2023-05-14T02:28:01.081Z,96.9190
2023-05-14T02:29:02.249Z,97.0626
2023-05-14T02:30:03.137Z,97.1612
2023-05-14T02:31:04.096Z,96.9130
2023-05-14T02:32:05.772Z,96.7693
2023-05-14T02:33:07.456Z,96.7939
2023-05-14T02:34:09.029Z,96.7392
2023-05-14T02:35:10.327Z,96.6448
2023-05-14T02:36:11.870Z,96.6319
2023-05-14T02:37:13.412Z,96.5930
2023-05-14T02:39:15.789Z,96.6112
2023-05-14T02:40:16.720Z,96.7205
2023-05-14T02:41:18.323Z,96.8634
2023-05-14T02:42:19.323Z,97.0762
2023-05-14T02:43:20.282Z,97.2574
2023-05-14T02:52:27.987Z,97.8137
2023-05-14T02:53:28.933Z,97.8386
2023-05-14T02:54:29.860Z,97.8475
2023-05-14T02:55:30.829Z,97.8378
2023-05-14T02:56:31.764Z,97.8953
2023-05-14T02:58:34.808Z,98.0685
2023-05-14T02:59:35.956Z,98.0894
2023-05-14T03:00:37.126Z,98.1039
2023-05-14T03:01:38.658Z,98.1382
2023-05-14T03:07:43.740Z,98.3241
2023-05-14T03:08:44.654Z,98.3414
2023-05-14T03:12:49.137Z,98.2555
2023-05-14T03:13:50.076Z,98.2147
2023-05-14T03:14:51.123Z,98.2128
2023-05-14T03:15:52.643Z,98.1251
2023-05-14T03:16:53.798Z,98.0851
2023-05-14T03:17:54.763Z,98.1264
2023-05-14T03:18:55.952Z,98.1534
2023-05-14T03:19:56.867Z,98.1516
2023-05-14T03:21:59.511Z,98.0950
2023-05-14T03:23:00.453Z,98.0816
2023-05-14T03:24:01.372Z,98.1359
2023-05-14T03:25:03.401Z,98.1141
2023-05-14T03:26:04.541Z,98.1506
2023-05-14T03:27:05.482Z,98.2552
2023-05-14T03:28:06.467Z,98.2457
2023-05-14T03:29:07.405Z,98.2987
2023-05-14T03:30:08.379Z,98.3498
2023-05-14T03:31:09.351Z,98.3836
2023-05-14T03:32:10.266Z,98.3852
2023-05-14T03:33:11.175Z,98.4094
2023-05-14T03:34:12.159Z,98.4927
2023-05-14T03:35:13.082Z,98.5718
2023-05-14T03:36:14.036Z,98.5875
2023-05-14T03:37:14.936Z,98.6757
2023-05-14T03:38:15.922Z,98.6955
2023-05-14T03:39:16.839Z,98.7265
2023-05-14T03:40:17.782Z,98.7537
2023-05-14T03:42:19.540Z,98.8345
2023-05-14T03:43:20.532Z,98.8697
2023-05-14T03:44:21.464Z,98.8889
2023-05-14T03:45:22.415Z,98.9224
2023-05-14T03:46:23.598Z,98.9742
2023-05-14T03:47:24.500Z,99.0209
2023-05-14T03:48:25.560Z,99.0687
2023-05-14T03:49:26.610Z,99.0938
2023-05-14T03:50:27.619Z,99.1427
2023-05-14T03:51:28.554Z,99.1941
2023-05-14T03:52:29.761Z,99.2147
2023-05-14T03:53:30.717Z,99.2418
2023-05-14T03:54:32.881Z,99.2546
2023-05-14T03:55:34.452Z,99.2843
2023-05-14T03:56:36.070Z,99.3164
2023-05-14T03:57:37.037Z,99.3326
2023-05-14T03:58:38.567Z,99.3687
2023-05-14T03:59:40.135Z,99.3904
2023-05-14T04:00:41.086Z,99.4233
2023-05-14T04:01:43.403Z,99.4407
2023-05-14T04:02:44.785Z,99.4574
2023-05-14T04:03:46.182Z,99.4562
2023-05-14T04:05:48.110Z,99.4594
2023-05-14T04:06:49.021Z,99.4588
2023-05-14T04:09:51.815Z,99.3994
2023-05-14T04:13:55.688Z,99.3334
2023-05-14T04:14:56.655Z,99.3453
2023-05-14T04:15:57.641Z,99.3489
2023-05-14T04:17:00.104Z,99.2742
2023-05-14T04:18:01.236Z,99.2084
2023-05-14T04:19:02.271Z,99.1931
2023-05-14T04:20:03.982Z,99.1387
2023-05-14T04:22:06.691Z,98.9408
2023-05-14T04:23:08.212Z,98.8825
2023-05-14T04:25:10.623Z,98.8152
2023-05-14T04:26:11.556Z,98.7695
2023-05-14T04:27:12.560Z,98.7110
2023-05-14T04:28:14.733Z,98.5743
2023-05-14T04:29:16.283Z,98.3886
2023-05-14T04:30:17.828Z,98.3226
2023-05-14T04:31:18.853Z,98.1704
2023-05-14T04:32:20.458Z,98.0816
2023-05-14T04:33:22.049Z,98.0070
2023-05-14T04:34:22.963Z,97.7912
2023-05-14T04:35:25.258Z,97.7526
2023-05-14T04:36:26.896Z,97.7698
2023-05-14T04:37:27.850Z,97.6394
2023-05-14T04:38:29.432Z,97.4023
2023-05-14T04:39:30.333Z,97.3008
2023-05-14T04:40:31.220Z,97.3905
2023-05-14T04:41:32.932Z,97.2312
2023-05-14T04:42:34.480Z,97.1083
2023-05-14T04:43:35.977Z,97.1806
2023-05-14T04:44:36.884Z,96.7458
2023-05-14T04:45:38.430Z,96.6836
2023-05-14T04:46:39.407Z,96.2791
2023-05-14T04:47:40.389Z,96.0679
2023-05-14T04:48:41.669Z,96.2865
2023-05-14T04:49:43.182Z,96.0305
2023-05-14T04:50:45.227Z,95.5868
2023-05-14T04:51:46.157Z,95.0397
2023-05-14T04:52:47.101Z,95.2591
2023-05-14T04:53:48.005Z,95.4006
2023-05-14T04:54:48.967Z,95.5134
2023-05-14T04:55:49.886Z,95.4420
2023-05-14T04:56:50.812Z,95.4546
2023-05-14T04:57:51.728Z,95.3581
2023-05-14T04:58:52.663Z,95.1802
2023-05-14T04:59:53.575Z,94.9269
2023-05-14T05:00:54.512Z,94.7860
2023-05-14T05:01:55.454Z,94.7710
2023-05-14T05:02:56.405Z,94.7141
2023-05-14T05:03:57.315Z,94.7908
2023-05-14T05:04:58.260Z,94.6300
2023-05-14T05:05:59.200Z,94.1264
2023-05-14T05:07:00.130Z,93.8674
2023-05-14T05:08:01.046Z,93.5252
2023-05-14T05:09:02.239Z,92.8453
2023-05-14T05:10:03.328Z,92.6483
2023-05-14T05:11:04.914Z,93.0521
2023-05-14T05:12:06.642Z,93.1560
2023-05-14T05:13:08.211Z,92.4967
2023-05-14T05:14:09.225Z,91.8871
2023-05-14T05:15:10.831Z,92.0701
2023-05-14T05:16:12.409Z,92.4136
2023-05-14T05:17:14.430Z,92.9668
2023-05-14T05:18:15.894Z,92.5580
2023-05-14T05:19:16.992Z,92.2063
2023-05-14T05:20:18.520Z,92.1561
2023-05-14T05:21:20.335Z,92.0588
2023-05-14T05:22:21.240Z,92.3892
2023-05-14T05:23:22.131Z,91.7077
2023-05-14T05:24:23.075Z,91.6462
2023-05-14T05:25:24.009Z,92.0648
2023-05-14T05:26:24.928Z,91.9058
2023-05-14T05:27:25.845Z,91.0267
2023-05-14T05:28:26.834Z,90.7268
2023-05-14T05:29:27.729Z,90.2291
2023-05-14T05:30:28.676Z,90.5443
2023-05-14T05:31:30.780Z,91.1341
2023-05-14T05:32:31.792Z,91.0782
2023-05-14T05:33:33.329Z,89.8830
2023-05-14T05:34:34.979Z,89.7436
2023-05-14T05:36:37.331Z,89.6447
2023-05-14T05:37:38.891Z,90.0380
2023-05-14T05:38:39.793Z,90.0381
2023-05-14T05:39:40.757Z,89.9508
2023-05-14T05:40:42.246Z,90.2927
2023-05-14T05:41:43.167Z,90.3328
2023-05-14T05:42:44.115Z,90.7764
2023-05-14T05:43:45.656Z,90.0928
2023-05-14T05:44:47.193Z,89.5276
2023-05-14T05:45:48.147Z,89.3158
2023-05-14T05:47:49.856Z,90.3649
2023-05-14T05:48:50.764Z,89.8857
2023-05-14T05:50:53.333Z,88.2962
2023-05-14T05:51:54.244Z,88.4609
2023-05-14T05:52:55.160Z,87.9987
2023-05-14T05:54:57.309Z,87.9994
2023-05-14T05:55:58.230Z,88.1125
2023-05-14T05:56:59.107Z,87.6929
2023-05-14T05:59:01.789Z,85.6370
2023-05-14T06:00:03.973Z,85.9319
2023-05-14T06:01:04.873Z,86.4639
2023-05-14T06:02:05.808Z,87.2936
2023-05-14T06:03:06.746Z,87.6678
2023-05-14T06:04:07.666Z,87.7490
2023-05-14T06:05:08.595Z,87.5795
2023-05-14T06:06:09.547Z,87.9090
2023-05-14T06:07:10.587Z,87.2632
2023-05-14T06:08:11.740Z,87.9223
2023-05-14T06:09:12.661Z,88.2027
2023-05-14T06:10:13.600Z,88.9629
2023-05-14T06:11:15.107Z,89.5739
2023-05-14T06:12:16.637Z,90.1475
2023-05-14T06:13:18.530Z,90.7451
2023-05-14T06:14:19.444Z,90.2753
2023-05-14T06:16:21.282Z,91.3895
2023-05-14T06:17:22.294Z,91.4249
2023-05-14T06:19:24.604Z,91.6968
2023-05-14T06:20:26.146Z,91.2721
2023-05-14T06:21:27.169Z,91.0568
2023-05-14T06:22:28.684Z,90.7152
2023-05-14T06:23:30.236Z,91.0392
2023-05-14T06:24:31.816Z,90.9529
2023-05-14T06:25:33.813Z,91.4175
2023-05-14T06:26:34.694Z,91.6410
2023-05-14T06:27:36.250Z,91.5278
2023-05-14T06:28:37.703Z,91.6779
2023-05-14T06:29:38.590Z,91.7041
2023-05-14T06:30:39.481Z,91.9172
2023-05-14T06:31:41.104Z,91.6608
2023-05-14T06:32:42.672Z,91.7033
2023-05-14T06:33:43.575Z,91.9255
2023-05-14T06:34:45.142Z,91.6986
2023-05-14T06:35:46.673Z,91.1907
2023-05-14T06:36:47.596Z,91.0480
2023-05-14T06:37:48.477Z,90.9341
2023-05-14T06:38:50.238Z,91.1692
2023-05-14T06:39:51.158Z,91.0633
2023-05-14T06:40:52.118Z,90.4962
2023-05-14T06:41:53.745Z,90.4931
2023-05-14T06:42:54.700Z,91.1516
2023-05-14T06:43:54.997Z,91.0584
2023-05-14T06:45:01.527Z,91.0808
2023-05-14T06:46:02.527Z,90.5263
2023-05-14T06:51:06.807Z,90.9563
2023-05-14T06:52:24.528Z,90.1116
2023-05-14T06:53:08.921Z,90.3486
2023-05-14T06:54:09.890Z,90.5547
2023-05-14T06:55:10.818Z,91.1445
2023-05-14T06:56:12.060Z,90.5358
2023-05-14T06:57:13.718Z,90.3945
2023-05-14T06:58:14.666Z,90.7714
2023-05-14T06:59:16.214Z,90.6677
2023-05-14T07:00:17.827Z,91.2726
2023-05-14T07:01:19.857Z,91.0217
2023-05-14T07:03:22.276Z,91.3148
2023-05-14T07:04:23.269Z,90.9764
2023-05-14T07:05:24.228Z,91.4310
2023-05-14T07:07:25.954Z,91.2711
2023-05-14T07:08:26.893Z,91.2984
2023-05-14T07:10:28.883Z,92.0380
2023-05-14T07:11:29.778Z,91.9289
2023-05-14T07:12:30.740Z,92.2783
2023-05-14T07:14:32.507Z,91.6976
2023-05-14T07:15:33.437Z,91.8849
2023-05-14T07:16:34.393Z,92.6548
2023-05-14T07:17:35.450Z,92.7209
2023-05-14T07:18:36.409Z,92.6574
2023-05-14T07:19:37.373Z,92.6297
2023-05-14T07:20:38.344Z,92.6030
2023-05-14T07:21:39.310Z,93.3622
2023-05-14T07:22:40.319Z,93.1482
2023-05-14T07:23:41.282Z,93.1035
2023-05-14T07:24:42.247Z,92.6996
2023-05-14T07:25:43.210Z,92.6080
2023-05-14T07:26:44.190Z,92.1274
2023-05-14T07:27:45.164Z,91.7688
2023-05-14T07:28:46.093Z,91.8488
2023-05-14T07:29:47.015Z,91.2604
2023-05-14T07:30:47.915Z,90.5655
2023-05-14T07:31:49.023Z,89.5589
2023-05-14T07:32:50.012Z,87.9516
2023-05-14T07:33:50.925Z,88.0691
2023-05-14T07:34:51.852Z,88.0378
2023-05-14T07:35:52.791Z,87.9947
2023-05-14T07:36:54.342Z,86.5604
2023-05-14T07:37:55.870Z,86.8573
2023-05-14T07:38:57.117Z,86.6074
2023-05-14T07:39:58.642Z,87.2711
2023-05-14T07:40:59.547Z,87.8988
2023-05-14T07:43:01.952Z,88.8437
2023-05-14T07:44:02.846Z,88.4295
2023-05-14T07:45:03.778Z,88.3638
2023-05-14T07:46:05.228Z,87.1337
2023-05-14T07:47:06.162Z,84.7610
2023-05-14T07:48:07.218Z,83.1068
2023-05-14T07:49:08.426Z,81.6182
2023-05-14T07:50:09.922Z,80.6835
2023-05-14T07:51:10.858Z,79.8930
2023-05-14T07:52:23.275Z,78.5520
2023-05-14T07:56:16.961Z,75.2051
2023-05-14T07:57:17.869Z,72.8246
2023-05-14T07:58:19.419Z,75.4453
2023-05-14T07:59:20.967Z,79.8490
2023-05-14T08:00:22.054Z,77.1451
2023-05-14T08:01:23.784Z,77.6680
2023-05-14T08:02:24.768Z,79.2066
2023-05-14T08:03:42.947Z,80.9485
2023-05-14T08:04:44.487Z,82.6319
2023-05-14T08:05:45.436Z,83.6057
2023-05-14T08:06:46.290Z,79.6815
2023-05-14T08:07:47.806Z,77.3377
2023-05-14T08:08:48.730Z,75.8100
2023-05-14T08:09:50.175Z,77.7241
2023-05-14T08:10:51.152Z,78.6341
2023-05-14T08:11:52.415Z,80.4199
2023-05-14T08:12:53.512Z,77.7737
2023-05-14T08:13:54.392Z,76.6321
2023-05-14T08:14:55.300Z,76.6277
2023-05-14T08:15:56.868Z,75.9684
2023-05-14T08:16:57.798Z,77.0278
2023-05-14T08:17:58.833Z,77.3769
2023-05-14T08:19:00.354Z,79.9890
2023-05-14T08:20:01.829Z,80.3107
2023-05-14T08:21:03.654Z,80.8927
2023-05-14T08:22:05.227Z,78.7602
2023-05-14T08:23:06.151Z,77.2938
2023-05-14T08:24:07.741Z,78.5681
2023-05-14T08:25:09.201Z,76.3884
2023-05-14T08:26:10.206Z,75.1093
2023-05-14T08:27:11.790Z,76.8748
2023-05-14T08:28:35.593Z,79.7766
2023-05-14T08:29:16.126Z,82.3817
2023-05-14T08:30:14.697Z,82.9202
2023-05-14T08:31:15.641Z,82.2606
2023-05-14T08:32:23.347Z,82.7060
2023-05-14T08:34:21.002Z,83.1775
2023-05-14T08:35:28.820Z,81.3472
2023-05-14T08:38:26.449Z,81.7199
2023-05-14T08:39:27.349Z,81.9982
2023-05-14T08:40:28.213Z,81.4323
2023-05-14T08:41:29.123Z,80.0373
2023-05-14T08:42:30.590Z,80.1790
2023-05-14T08:43:31.489Z,79.6955
2023-05-14T08:44:32.352Z,79.4533
2023-05-14T08:45:33.918Z,79.4468
2023-05-14T08:46:34.840Z,81.0581
2023-05-14T08:47:35.771Z,79.3434
2023-05-14T08:48:36.658Z,77.5405
2023-05-14T08:49:37.571Z,78.8387
2023-05-14T08:53:43.801Z,79.3614
2023-05-14T08:54:44.727Z,77.0560
2023-05-14T08:55:45.596Z,76.0034
2023-05-14T08:56:47.192Z,76.3253
2023-05-14T08:57:48.412Z,75.7198
2023-05-14T08:58:50.408Z,78.0102
2023-05-14T08:59:51.263Z,78.6393
2023-05-14T09:00:52.157Z,76.6382
2023-05-14T09:02:05.048Z,69.4624
2023-05-14T09:02:55.391Z,72.1378
2023-05-14T09:03:57.010Z,73.5451
2023-05-14T09:04:57.882Z,72.5959
2023-05-14T09:06:00.196Z,71.6537
2023-05-14T09:07:01.976Z,69.8913
2023-05-14T09:08:03.438Z,71.1834
2023-05-14T09:10:04.986Z,75.0375
2023-05-14T09:11:05.849Z,74.4459
2023-05-14T09:12:07.217Z,73.3822
2023-05-14T09:13:08.404Z,73.4399
2023-05-14T09:14:09.192Z,70.3620
2023-05-14T09:15:10.788Z,72.6663
2023-05-14T09:16:12.429Z,74.3342
2023-05-14T09:17:13.290Z,74.3442
2023-05-14T09:18:14.149Z,75.3274
2023-05-14T09:19:15.137Z,73.3352
2023-05-14T09:20:16.029Z,71.7492
2023-05-14T09:21:16.872Z,74.2057
2023-05-14T09:22:17.683Z,75.8673
2023-05-14T09:23:19.120Z,77.3605
2023-05-14T09:24:19.987Z,77.9752
2023-05-14T09:25:21.445Z,78.4999
2023-05-14T09:26:22.334Z,78.3660
2023-05-14T09:27:23.774Z,78.0064
2023-05-14T09:28:25.319Z,78.8482
2023-05-14T09:29:26.173Z,78.1077
2023-05-14T09:30:27.343Z,79.1286
2023-05-14T09:31:28.312Z,79.6502
2023-05-14T09:32:29.233Z,80.7271
2023-05-14T09:33:30.735Z,81.6396
2023-05-14T09:34:31.628Z,81.2826
2023-05-14T09:35:32.672Z,82.1199
2023-05-14T09:36:34.182Z,82.0701
2023-05-14T09:37:35.366Z,80.3755
2023-05-14T09:38:36.251Z,78.9982
2023-05-14T09:39:37.173Z,78.6822
2023-05-14T09:40:38.059Z,80.6712
2023-05-14T09:41:38.946Z,79.6393
2023-05-14T09:43:41.349Z,77.2577
2023-05-14T09:44:42.224Z,77.1468
2023-05-14T09:46:44.969Z,76.2192
2023-05-14T09:47:47.177Z,76.0907
2023-05-14T09:48:48.241Z,77.4074
2023-05-14T09:49:49.731Z,76.4498
2023-05-14T09:50:50.686Z,76.4305
2023-05-14T09:51:52.513Z,74.8437
2023-05-14T09:52:54.080Z,76.2935
2023-05-14T09:53:54.960Z,77.5890
2023-05-14T09:54:55.838Z,77.3581
2023-05-14T09:55:56.683Z,77.3830
2023-05-14T09:56:57.539Z,77.2417
2023-05-14T10:01:01.158Z,82.3487
2023-05-14T10:02:02.302Z,83.6200
2023-05-14T10:03:03.208Z,83.1018
2023-05-14T10:04:04.116Z,82.4821
2023-05-14T10:05:05.041Z,82.6608
2023-05-14T10:06:05.889Z,80.6720
2023-05-14T10:08:07.475Z,83.4351
2023-05-14T10:09:08.376Z,83.3356
2023-05-14T10:11:10.244Z,81.2788
2023-05-14T10:12:11.113Z,82.7081
2023-05-14T10:13:33.892Z,82.5568
2023-05-14T10:14:16.475Z,81.0473
2023-05-14T10:15:17.394Z,80.7125
2023-05-14T10:16:18.342Z,80.0943
2023-05-14T10:17:19.886Z,81.1215
2023-05-14T10:18:21.409Z,81.1507
2023-05-14T10:19:23.078Z,80.1323
2023-05-14T10:20:24.246Z,79.5872
2023-05-14T10:21:25.376Z,80.5431
2023-05-14T10:22:26.780Z,80.3886
2023-05-14T10:23:27.986Z,78.7910
2023-05-14T10:24:30.996Z,81.1510
2023-05-14T10:25:31.880Z,82.5797
2023-05-14T10:27:34.092Z,79.8343
2023-05-14T10:28:34.951Z,79.2266
2023-05-14T10:29:36.447Z,78.9608
2023-05-14T10:30:37.335Z,80.9923
2023-05-14T10:31:38.255Z,80.8532
2023-05-14T10:32:39.206Z,82.3769
2023-05-14T10:33:40.114Z,82.3560
2023-05-14T10:34:41.007Z,81.3038
2023-05-14T10:35:42.556Z,82.5011
2023-05-14T10:36:43.986Z,81.7396
2023-05-14T10:37:44.962Z,82.9040
2023-05-14T10:38:47.248Z,80.0449
2023-05-14T10:39:48.328Z,80.5889
2023-05-14T10:41:14.275Z,79.9327
2023-05-14T10:41:50.080Z,81.0951
2023-05-14T10:42:50.963Z,79.3359
2023-05-14T10:43:51.854Z,80.7053
2023-05-14T10:45:54.931Z,80.2822
2023-05-14T10:46:56.659Z,81.1186
2023-05-14T10:47:57.459Z,79.1303
2023-05-14T10:48:58.713Z,80.8916
2023-05-14T10:50:00.214Z,77.5623
2023-05-14T10:51:01.157Z,78.3357
2023-05-14T10:52:02.287Z,76.1297
2023-05-14T10:53:03.140Z,75.0035
2023-05-14T10:54:04.070Z,76.0032
2023-05-14T10:55:04.925Z,74.7163
2023-05-14T10:56:06.554Z,76.0443
2023-05-14T10:57:08.052Z,75.8620
2023-05-14T10:59:08.853Z,77.6665
2023-05-14T11:00:11.019Z,76.3774
2023-05-14T11:01:11.909Z,76.3023
2023-05-14T11:03:14.905Z,76.5493
2023-05-14T11:04:16.097Z,76.1366
2023-05-14T11:05:33.375Z,74.6085
2023-05-14T11:06:17.162Z,72.8308
2023-05-14T11:07:18.026Z,73.1425
2023-05-14T11:08:22.378Z,73.2007
2023-05-14T11:11:22.140Z,66.9508
2023-05-14T11:12:23.071Z,66.1235
2023-05-14T11:13:24.706Z,67.1446
2023-05-14T11:14:25.781Z,67.8778
2023-05-14T11:15:27.722Z,67.3696
2023-05-14T11:16:28.822Z,65.8777
2023-05-14T11:17:29.883Z,67.0140
2023-05-14T11:18:30.795Z,68.4037
2023-05-14T11:19:32.435Z,67.1351
2023-05-14T11:20:33.588Z,70.1768
2023-05-14T11:21:35.223Z,70.5401
2023-05-14T11:22:36.532Z,73.4194
2023-05-14T11:23:37.581Z,76.6053
2023-05-14T11:24:38.460Z,78.3370
2023-05-14T11:26:41.675Z,79.0036
2023-05-14T11:27:42.538Z,79.3686
2023-05-14T11:28:43.450Z,79.3991
2023-05-14T11:29:44.354Z,78.0214
2023-05-14T11:30:45.645Z,79.3963
2023-05-14T11:31:46.539Z,79.7093
2023-05-14T11:32:48.041Z,80.2379
2023-05-14T11:37:53.946Z,78.5820
2023-05-14T11:38:55.022Z,79.3840
2023-05-14T11:42:10.542Z,75.3437
2023-05-14T11:44:01.426Z,75.6356
2023-05-14T11:45:03.152Z,76.4310
2023-05-14T11:46:04.124Z,76.4178
2023-05-14T11:47:05.812Z,76.6592
2023-05-14T11:48:06.815Z,75.3382
2023-05-14T11:49:07.741Z,74.0863
2023-05-14T11:50:19.997Z,75.4965
2023-05-14T11:54:16.661Z,75.5374
2023-05-14T11:55:18.202Z,74.7377
2023-05-14T11:56:19.602Z,75.3696
2023-05-14T11:57:20.503Z,75.6404
2023-05-14T11:58:21.485Z,75.7059
2023-05-14T11:59:24.315Z,74.0473
2023-05-14T12:00:23.759Z,73.0992
2023-05-14T12:01:24.839Z,74.3332
2023-05-14T12:02:26.489Z,72.4517
2023-05-14T12:03:28.103Z,71.6736
2023-05-14T12:05:30.508Z,72.4502
2023-05-14T12:06:32.099Z,71.9209
2023-05-14T12:07:33.599Z,72.2629
2023-05-14T12:08:34.592Z,73.0249
2023-05-14T12:09:35.863Z,76.6266
2023-05-14T12:10:36.920Z,77.3643
2023-05-14T12:11:38.233Z,76.7012
2023-05-14T12:12:39.546Z,77.4137
2023-05-14T12:13:40.784Z,76.7856
2023-05-14T12:14:41.851Z,77.7056
2023-05-14T12:15:42.228Z,78.0583
2023-05-14T12:16:43.256Z,79.4091
2023-05-14T12:17:44.911Z,80.3667
2023-05-14T12:18:45.875Z,81.9535
2023-05-14T12:19:47.598Z,83.2154
2023-05-14T12:20:48.539Z,83.3679
2023-05-14T12:21:49.501Z,83.8544
2023-05-14T12:22:50.554Z,84.2928
2023-05-14T12:23:51.491Z,84.7079
2023-05-14T12:24:52.474Z,85.1922
2023-05-14T12:25:53.422Z,85.2351
2023-05-14T12:26:55.259Z,85.4909
2023-05-14T12:27:56.254Z,86.2445
2023-05-14T12:28:57.210Z,85.7852
2023-05-14T12:30:06.289Z,86.2547
2023-05-14T12:31:00.378Z,86.8528
2023-05-14T12:32:01.325Z,86.7438
2023-05-14T12:33:02.344Z,87.2405
2023-05-14T12:34:03.987Z,87.2273
2023-05-14T12:35:05.022Z,87.7472
2023-05-14T12:36:20.656Z,88.1983
2023-05-14T12:37:07.636Z,88.2373
2023-05-14T12:38:08.572Z,89.0196
2023-05-14T12:39:09.561Z,89.6260
2023-05-14T12:40:10.507Z,89.6305
2023-05-14T12:41:11.551Z,89.9388
2023-05-14T12:42:12.996Z,89.4368
2023-05-14T12:43:13.985Z,90.2451
2023-05-14T12:44:14.984Z,90.4807
2023-05-14T12:45:15.922Z,90.5398
2023-05-14T12:46:16.905Z,90.4549
2023-05-14T12:47:18.045Z,90.3500
2023-05-14T12:48:19.089Z,89.6390
2023-05-14T12:49:20.077Z,89.4777
2023-05-14T12:50:21.173Z,89.3616
2023-05-14T12:51:22.131Z,88.8337
2023-05-14T12:52:36.903Z,89.1124
2023-05-14T12:54:25.095Z,89.2250
2023-05-14T12:57:27.794Z,90.1468
2023-05-14T12:59:29.614Z,89.4554
2023-05-14T13:00:30.568Z,89.9588
2023-05-14T13:01:31.628Z,89.8319
2023-05-14T13:02:32.705Z,89.3285
2023-05-14T13:03:33.674Z,87.4473
2023-05-14T13:04:35.020Z,86.3198
2023-05-14T13:05:35.978Z,87.1366
2023-05-14T13:06:36.990Z,87.3817
2023-05-14T13:07:38.003Z,87.0763
2023-05-14T13:08:39.689Z,87.6735
2023-05-14T13:09:39.002Z,87.9483
2023-05-14T13:10:40.059Z,87.9179
2023-05-14T13:11:41.035Z,87.5926
2023-05-14T13:12:41.975Z,87.6076
2023-05-14T13:13:42.946Z,86.1957
2023-05-14T13:14:43.877Z,82.8824
2023-05-14T13:16:45.630Z,82.4233
2023-05-14T13:17:46.659Z,81.7007
2023-05-14T13:18:47.634Z,82.0095
2023-05-14T13:19:48.627Z,83.4938
2023-05-14T13:21:50.429Z,83.5519
2023-05-14T13:22:51.378Z,84.0973
2023-05-14T13:23:52.368Z,82.4694
2023-05-14T13:24:53.368Z,82.7598
2023-05-14T13:25:54.348Z,83.1878
2023-05-14T13:26:55.287Z,83.6560
2023-05-14T13:27:56.259Z,81.7237
2023-05-14T13:28:57.228Z,81.2744
2023-05-14T13:29:58.864Z,81.5776
2023-05-14T13:31:00.202Z,81.8310
2023-05-14T13:32:01.158Z,81.0660
2023-05-14T13:33:02.183Z,82.2346
2023-05-14T13:35:04.650Z,80.1807
2023-05-14T13:36:06.274Z,78.7203
2023-05-14T13:37:07.270Z,81.0927
2023-05-14T13:39:09.034Z,80.2666
2023-05-14T13:40:09.991Z,80.5169
2023-05-14T13:42:12.735Z,79.3954
2023-05-14T13:43:14.358Z,79.7566
2023-05-14T13:44:15.296Z,78.5882
2023-05-14T13:45:16.913Z,78.7722
2023-05-14T13:46:17.871Z,77.9663
2023-05-14T13:47:18.835Z,77.9445
2023-05-14T13:48:19.765Z,78.2205
2023-05-14T13:49:20.729Z,77.5627
2023-05-14T13:50:21.663Z,76.3677
2023-05-14T13:51:22.624Z,76.6036
2023-05-14T13:52:23.552Z,79.0657
2023-05-14T13:54:26.080Z,79.3442
2023-05-14T13:55:27.719Z,78.2722
2023-05-14T13:58:31.354Z,75.3753
2023-05-14T13:59:32.268Z,73.0759
2023-05-14T14:00:33.164Z,72.7898
2023-05-14T14:01:34.710Z,74.1653